Vail, Arizona
Current Conditions -  °F | °C
As of 5:58 AM on Thursday 23 Oct 2014 (Local Time) from KDMA Reporting Station
Clear Clear  
Wind Chill: 59°   Ceiling: Unl
Heat Index: 59°   Visibility: 10mi
Dew Point: 47°   Wind: 6mph
Humidity: 66%   Direction: 130°SE
Pressure: 30.06"   Gusts: NA
Location:  32.05°N, 110.71°W
Report Text: KDMA 231258Z AUTO 13005KT 10SM CLR 15/09 A3006 RMK AO2 SLP146 T01490085 $
Loading
Personal Weather Stations






























Interactive Weather Map
Tropical Storm Tracking
New forecast layout! Learn more

10-Day Weather Forecast

Advertisements
Track Severe Weather on mobile